createdAt,value
2022-08-18T00:04:46.834Z,100040.22
2022-08-18T00:11:43.979Z,100026.13
2022-08-18T00:18:29.506Z,100031.59
2022-08-18T00:25:17.130Z,100022.91
2022-08-18T00:32:16.664Z,100022.25
2022-08-18T00:39:02.230Z,100037.13
2022-08-18T00:45:47.832Z,100039.56
2022-08-18T00:52:36.607Z,100023.16
2022-08-18T00:59:28.808Z,99992.34
2022-08-18T01:06:23.785Z,100016.75
2022-08-18T01:13:12.717Z,100029.16
2022-08-18T01:20:11.982Z,100031.94
2022-08-18T01:27:00.627Z,100015.91
2022-08-18T01:33:48.145Z,100035.09
2022-08-18T01:41:11.076Z,100032.69
2022-08-18T01:47:47.619Z,100033.09
2022-08-18T01:54:34.122Z,100045.59
2022-08-18T02:01:21.030Z,99985.63
2022-08-18T02:08:10.737Z,100037.28
2022-08-18T02:14:57.210Z,99992.84
2022-08-18T02:21:42.750Z,100037.28
2022-08-18T02:28:31.145Z,100034.50
2022-08-18T02:35:16.666Z,100038.53
2022-08-18T02:42:05.128Z,100032.91
2022-08-18T03:02:42.152Z,100035.31
2022-08-18T03:09:30.314Z,100031.69
2022-08-18T03:16:16.000Z,100028.09
2022-08-18T03:23:09.984Z,100034.06
2022-08-18T03:29:55.892Z,100047.25
2022-08-18T03:36:45.568Z,100027.63
2022-08-18T03:43:49.655Z,100026.84
2022-08-18T03:50:37.997Z,100028.03
2022-08-18T03:57:23.585Z,100025.25
2022-08-18T04:04:15.124Z,100012.09
2022-08-18T04:11:00.600Z,100032.09
2022-08-18T04:18:03.068Z,100016.47
2022-08-18T04:24:53.637Z,100020.06
2022-08-18T04:31:39.471Z,100024.06
2022-08-18T04:38:26.126Z,99974.38
2022-08-18T04:45:14.626Z,100032.75
2022-08-18T04:52:37.140Z,100049.16
2022-08-18T04:59:19.102Z,100049.16
2022-08-18T05:06:10.055Z,100046.28
2022-08-18T05:12:55.712Z,100046.66
2022-08-18T05:19:42.161Z,100050.91
2022-08-18T05:26:32.196Z,100051.41
2022-08-18T05:33:17.993Z,100061.38
2022-08-18T05:40:11.384Z,100058.56
2022-08-18T05:47:06.653Z,100063.75
2022-08-18T05:54:05.234Z,100065.72
2022-08-18T06:00:59.971Z,100058.50
2022-08-18T06:07:58.509Z,100063.31
2022-08-18T06:14:44.066Z,100058.06
2022-08-18T06:21:39.245Z,100050.81
2022-08-18T06:28:27.712Z,100051.03
2022-08-18T06:35:24.442Z,100052.78
2022-08-18T06:42:09.961Z,100063.63
2022-08-18T06:49:03.754Z,100055.63
2022-08-18T06:55:53.160Z,100067.69
2022-08-18T07:02:51.245Z,100065.28
2022-08-18T07:09:39.424Z,100074.88
2022-08-18T07:23:44.268Z,100102.53
2022-08-18T07:30:36.962Z,100116.59
2022-08-18T07:37:30.019Z,100121.44
2022-08-18T07:44:27.315Z,100131.44
2022-08-18T07:51:30.414Z,100139.44
2022-08-18T07:58:30.189Z,100145.06
2022-08-18T08:05:24.716Z,100129.81
2022-08-18T08:12:26.433Z,100132.25
2022-08-18T08:19:58.828Z,100134.63
2022-08-18T08:26:56.477Z,100133.81
2022-08-18T08:33:50.699Z,100140.59
2022-08-18T08:40:48.501Z,100140.63
2022-08-18T08:47:41.728Z,100144.97
2022-08-18T08:54:43.168Z,100127.34
2022-08-18T09:01:38.462Z,100122.53
2022-08-18T09:09:01.943Z,100124.13
2022-08-18T09:16:18.324Z,100140.56
2022-08-18T09:23:11.907Z,100143.38
2022-08-18T09:30:00.781Z,100147.72
2022-08-18T09:37:06.673Z,100154.53
2022-08-18T09:44:21.145Z,100168.16
2022-08-18T09:59:10.766Z,100164.53
2022-08-18T10:06:18.309Z,100171.81
2022-08-18T10:13:21.589Z,100185.91
2022-08-18T10:20:30.398Z,100184.34
2022-08-18T10:27:51.719Z,100146.25
2022-08-18T10:42:05.548Z,100090.47
2022-08-18T10:49:07.007Z,100156.84
2022-08-18T10:56:03.131Z,100152.75
2022-08-18T11:10:32.324Z,100075.84
2022-08-18T11:17:42.826Z,100109.31
2022-08-18T11:24:35.520Z,100089.97
2022-08-18T11:31:23.320Z,100067.84
2022-08-18T11:38:20.765Z,100044.59
2022-08-18T11:45:19.818Z,99914.00
2022-08-18T11:52:26.350Z,100056.91
2022-08-18T11:59:55.056Z,100066.78
2022-08-18T12:07:00.716Z,100042.88
2022-08-18T12:14:32.287Z,100048.22
2022-08-18T12:21:13.851Z,100052.91
2022-08-18T12:28:01.920Z,100031.09
2022-08-18T12:34:47.432Z,100046.94
2022-08-18T12:41:33.017Z,100043.66
2022-08-18T12:48:22.400Z,100038.69
2022-08-18T12:55:21.324Z,100028.50
2022-08-18T13:02:09.763Z,100031.94
2022-08-18T13:08:59.457Z,99990.75
2022-08-18T13:15:58.285Z,99996.47
2022-08-18T13:22:44.953Z,100002.47
2022-08-18T13:29:33.124Z,99995.16
2022-08-18T13:36:19.009Z,99990.94
2022-08-18T13:43:04.642Z,99977.47
2022-08-18T13:49:58.855Z,99971.19
2022-08-18T13:56:51.812Z,99967.28
2022-08-18T14:03:46.993Z,99965.44
2022-08-18T14:10:36.357Z,99942.16
2022-08-18T14:17:22.649Z,99943.44
2022-08-18T14:24:30.357Z,99937.03
2022-08-18T14:31:20.570Z,99841.72
2022-08-18T14:38:10.081Z,99928.47
2022-08-18T14:45:17.309Z,99931.91
2022-08-18T14:52:05.995Z,99917.63
2022-08-18T14:58:59.611Z,99911.19
2022-08-18T15:05:46.285Z,99916.50
2022-08-18T15:12:35.056Z,99888.63
2022-08-18T15:19:24.647Z,99857.81
2022-08-18T15:26:31.192Z,99923.59
2022-08-18T15:33:23.601Z,99906.00
2022-08-18T15:40:30.141Z,99921.63
2022-08-18T15:47:20.642Z,99918.97
2022-08-18T15:54:09.991Z,99910.50
2022-08-18T16:00:58.918Z,99917.41
2022-08-18T16:07:46.021Z,99911.75
2022-08-18T16:14:34.673Z,99898.56
2022-08-18T16:21:23.433Z,99902.38
2022-08-18T16:28:10.183Z,99896.78
2022-08-18T16:34:59.010Z,99897.97
2022-08-18T16:41:44.508Z,99850.78
2022-08-18T16:48:29.984Z,99915.16
2022-08-18T16:55:18.059Z,99915.78
2022-08-18T17:02:30.710Z,99913.22
2022-08-18T17:09:16.568Z,99923.66
2022-08-18T17:16:11.140Z,99916.31
2022-08-18T17:22:56.999Z,99914.09
2022-08-18T17:29:51.109Z,99839.13
2022-08-18T17:36:52.491Z,99909.72
2022-08-18T17:51:06.864Z,99905.66
2022-08-18T17:58:02.128Z,99825.00
2022-08-18T18:04:49.410Z,99930.31
2022-08-18T18:11:37.935Z,99921.22
2022-08-18T18:18:41.973Z,99922.25
2022-08-18T18:25:35.845Z,99921.91
2022-08-18T18:32:30.844Z,99922.34
2022-08-18T18:39:33.129Z,99924.72
2022-08-18T18:46:34.132Z,99925.16
2022-08-18T18:53:31.750Z,99933.72
2022-08-18T19:00:30.019Z,99938.66
2022-08-18T19:07:21.536Z,99946.75
2022-08-18T19:14:14.256Z,99947.22
2022-08-18T19:22:03.459Z,99961.03
2022-08-18T19:28:19.652Z,99961.78
2022-08-18T19:35:12.143Z,99971.47
2022-08-18T19:42:09.390Z,99980.91
2022-08-18T19:49:02.611Z,99963.06
2022-08-18T19:56:12.513Z,99973.94
2022-08-18T20:03:44.925Z,99970.94
2022-08-18T20:10:50.712Z,99973.22
2022-08-18T20:17:36.328Z,99964.63
2022-08-18T20:24:50.357Z,99970.81
2022-08-18T20:31:55.183Z,99960.06
2022-08-18T20:38:45.602Z,99973.28
2022-08-18T20:45:42.679Z,99965.25
2022-08-18T20:52:44.058Z,99960.00
2022-08-18T20:59:45.476Z,99975.59
2022-08-18T21:06:44.546Z,99910.59
2022-08-18T21:13:40.594Z,99991.91
2022-08-18T21:20:27.397Z,99994.63
2022-08-18T21:27:29.096Z,99978.91
2022-08-18T21:34:20.755Z,99998.59
2022-08-18T21:41:07.561Z,99935.66
2022-08-18T21:47:59.348Z,99934.63
2022-08-18T21:54:45.412Z,99999.75
2022-08-18T22:01:31.676Z,100000.19
2022-08-18T22:08:27.040Z,100000.75
2022-08-18T22:15:16.757Z,100017.66
2022-08-18T22:22:26.903Z,100023.28
2022-08-18T22:29:32.559Z,100018.88
2022-08-18T22:36:23.079Z,100037.84
2022-08-18T22:43:08.652Z,100049.09
2022-08-18T22:49:57.585Z,100043.09
2022-08-18T22:56:54.134Z,100050.75
2022-08-18T23:03:43.415Z,100047.13
2022-08-18T23:10:31.608Z,100026.38
2022-08-18T23:17:17.444Z,100047.16
2022-08-18T23:24:02.979Z,100042.03
2022-08-18T23:30:53.557Z,100031.22
2022-08-18T23:37:39.570Z,100046.56
2022-08-18T23:44:27.689Z,100050.59
2022-08-18T23:51:16.254Z,100040.97
2022-08-18T23:58:02.060Z,100059.53
